Time;durP1;ratioP1;P1;durP2;ratioP2;P2;SDS_P1;SDS_P2;PMS_P1;PMS_P2;Temp;Humidity;BMP_temperature;BMP_pressure;BME280_temperature;BME280_humidity;BME280_pressure;Samples;Min_cycle;Max_cycle;Signal;HPM_P1;HPM_P2
2023/06/07 00:00:46;;;;;;;6.90;3.10;;;;;;;19.69;48.14;100148.27;105781;1257;72590;-72
2023/06/07 00:03:14;;;;;;;5.70;3.10;;;;;;;19.68;47.88;100151.84;106681;1256;69179;-74
2023/06/07 00:05:43;;;;;;;6.10;3.20;;;;;;;19.67;47.74;100148.11;107335;1256;71402;-74
2023/06/07 00:08:11;;;;;;;4.70;3.40;;;;;;;19.68;47.72;100149.55;106951;1257;59517;-78
2023/06/07 00:10:38;;;;;;;6.50;3.30;;;;;;;19.70;47.51;100147.73;106218;1256;59504;-78
2023/06/07 00:13:06;;;;;;;5.00;3.20;;;;;;;19.71;47.51;100146.30;105585;1257;73046;-78
2023/06/07 00:15:33;;;;;;;5.30;3.00;;;;;;;19.71;47.58;100146.64;105572;1256;69069;-78
2023/06/07 00:18:01;;;;;;;5.00;3.00;;;;;;;19.71;47.58;100146.19;105424;1256;71112;-77
2023/06/07 00:20:30;;;;;;;3.80;2.90;;;;;;;19.70;47.71;100145.53;105655;1260;60088;-76
2023/06/07 00:22:58;;;;;;;6.30;3.20;;;;;;;19.70;47.68;100146.15;105365;1257;60055;-77
2023/06/07 00:25:26;;;;;;;5.30;3.00;;;;;;;19.69;47.57;100147.15;105521;1258;73077;-76
2023/06/07 00:27:53;;;;;;;6.90;3.50;;;;;;;19.68;47.60;100145.45;105442;1264;69024;-77
2023/06/07 00:30:21;;;;;;;7.40;3.50;;;;;;;19.67;47.63;100148.27;105492;1259;72669;-77
2023/06/07 00:32:49;;;;;;;3.50;3.20;;;;;;;19.67;47.66;100147.66;105437;1257;60012;-77
2023/06/07 00:35:16;;;;;;;8.50;3.60;;;;;;;19.65;47.51;100146.55;105420;1257;59564;-76
2023/06/07 00:37:44;;;;;;;6.70;3.30;;;;;;;19.64;47.69;100147.23;105409;1257;73948;-75
2023/06/07 00:40:11;;;;;;;3.80;3.20;;;;;;;19.62;47.63;100143.92;105595;1257;69975;-73
2023/06/07 00:42:39;;;;;;;5.30;3.60;;;;;;;19.61;47.81;100145.57;105851;1257;72647;-74
2023/06/07 00:45:07;;;;;;;4.80;3.70;;;;;;;19.60;47.89;100149.52;105673;1256;60094;-75
2023/06/07 00:47:36;;;;;;;4.40;3.20;;;;;;;19.58;48.25;100147.00;105567;1263;59536;-75
2023/06/07 00:50:05;;;;;;;6.60;3.20;;;;;;;19.57;48.72;100149.93;105577;1258;71907;-78
2023/06/07 00:52:34;;;;;;;6.20;3.40;;;;;;;19.52;49.07;100151.36;105667;1257;70812;-76
2023/06/07 00:55:05;;;;;;;4.30;3.70;;;;;;;19.49;49.76;100151.09;105674;1256;72726;-76
2023/06/07 00:57:33;;;;;;;4.60;3.10;;;;;;;19.43;50.39;100149.09;105866;1264;61523;-72
2023/06/07 01:00:04;;;;;;;4.40;3.60;;;;;;;19.38;50.97;100148.95;105798;1259;59589;-73
2023/06/07 01:02:34;;;;;;;5.40;3.30;;;;;;;19.31;51.14;100149.03;105620;1256;71905;-72
2023/06/07 01:05:03;;;;;;;5.10;3.40;;;;;;;19.22;51.31;100148.42;105719;1258;68330;-73
2023/06/07 01:07:32;;;;;;;7.80;3.30;;;;;;;19.16;51.62;100146.88;105468;1262;72868;-73
2023/06/07 01:10:01;;;;;;;3.70;3.20;;;;;;;19.08;51.87;100145.71;105060;1259;60188;-72
2023/06/07 01:12:29;;;;;;;5.40;3.50;;;;;;;19.01;52.06;100148.02;105326;1264;59718;-71
2023/06/07 01:14:58;;;;;;;3.20;2.80;;;;;;;18.97;52.05;100146.66;105400;1257;71776;-73
2023/06/07 01:17:26;;;;;;;8.00;3.80;;;;;;;18.93;51.48;100146.44;105124;1257;70616;-75
2023/06/07 01:19:55;;;;;;;6.30;4.00;;;;;;;18.93;50.36;100148.84;105450;1258;71875;-74
2023/06/07 01:22:27;;;;;;;4.50;3.70;;;;;;;18.94;50.00;100149.66;105498;1254;60111;-73
2023/06/07 01:24:56;;;;;;;5.90;4.20;;;;;;;18.98;49.92;100148.61;105245;1256;60169;-73
2023/06/07 01:27:30;;;;;;;5.10;4.20;;;;;;;19.02;49.68;100145.95;105540;1254;72051;-79
2023/06/07 01:29:58;;;;;;;5.60;4.20;;;;;;;19.06;49.63;100149.91;105540;1260;70161;-78
2023/06/07 01:32:25;;;;;;;6.80;4.00;;;;;;;19.09;49.85;100149.35;105663;1256;72441;-76
2023/06/07 01:34:53;;;;;;;5.50;4.50;;;;;;;19.11;49.66;100150.17;105600;1254;60061;-78
2023/06/07 01:37:20;;;;;;;7.00;4.90;;;;;;;19.12;49.74;100150.45;105549;1264;60104;-73
2023/06/07 01:39:48;;;;;;;5.80;4.40;;;;;;;19.14;49.56;100152.94;105711;1254;70958;-73
2023/06/07 01:42:16;;;;;;;10.00;4.80;;;;;;;19.15;50.02;100149.53;105499;1254;70256;-74
2023/06/07 01:44:45;;;;;;;7.40;4.40;;;;;;;19.14;50.45;100150.88;105747;1257;72439;-71
2023/06/07 01:47:14;;;;;;;8.10;3.80;;;;;;;19.13;51.00;100148.88;105695;1256;60046;-71
2023/06/07 01:49:42;;;;;;;6.20;3.70;;;;;;;19.11;51.51;100149.67;105399;1259;59702;-73
2023/06/07 01:52:10;;;;;;;4.30;3.70;;;;;;;19.08;52.19;100150.48;105668;1256;73013;-74
2023/06/07 01:54:38;;;;;;;7.70;4.50;;;;;;;19.03;52.66;100151.52;105292;1260;68691;-72
2023/06/07 01:57:06;;;;;;;7.20;4.30;;;;;;;18.97;52.94;100152.39;105515;1254;71778;-75
2023/06/07 01:59:51;;;;;;;6.60;4.10;;;;;;;18.91;53.33;100152.00;105542;1258;59677;-73
2023/06/07 02:02:22;;;;;;;6.60;4.30;;;;;;;18.81;53.78;100152.92;105581;1262;59602;-73
2023/06/07 02:04:53;;;;;;;7.30;4.00;;;;;;;18.73;53.98;100151.73;105445;1262;73022;-73
2023/06/07 02:07:24;;;;;;;8.30;3.70;;;;;;;18.66;54.29;100152.95;105621;1257;68728;-73
2023/06/07 02:09:51;;;;;;;10.90;4.40;;;;;;;18.62;54.46;100152.48;105497;1260;72805;-74
2023/06/07 02:12:19;;;;;;;7.70;4.10;;;;;;;18.58;54.22;100151.02;105198;1261;59595;-73
2023/06/07 02:14:52;;;;;;;6.50;3.50;;;;;;;18.57;53.24;100152.85;105248;1254;60281;-76
2023/06/07 02:17:20;;;;;;;6.40;3.30;;;;;;;18.58;52.28;100149.86;105556;1254;71870;-73
2023/06/07 02:19:48;;;;;;;4.40;3.30;;;;;;;18.59;51.27;100151.40;105923;1257;68902;-72
2023/06/07 02:22:15;;;;;;;4.70;3.50;;;;;;;18.65;50.69;100152.83;105682;1258;72672;-73
2023/06/07 02:24:43;;;;;;;5.10;3.80;;;;;;;18.72;50.30;100155.09;105293;1260;59720;-74
2023/06/07 02:27:10;;;;;;;6.70;3.50;;;;;;;18.80;49.94;100152.89;105424;1262;59542;-74
2023/06/07 02:29:38;;;;;;;8.10;3.80;;;;;;;18.88;49.79;100152.73;105180;1256;71771;-73
2023/06/07 02:32:06;;;;;;;8.80;3.90;;;;;;;18.96;49.55;100155.78;105302;1260;68948;-73
2023/06/07 02:34:34;;;;;;;7.60;3.10;;;;;;;19.02;49.52;100151.83;105440;1259;72511;-72
2023/06/07 02:37:02;;;;;;;5.80;3.50;;;;;;;19.09;49.37;100153.61;105494;1256;60418;-74
2023/06/07 02:39:30;;;;;;;4.90;3.10;;;;;;;19.15;49.06;100157.20;105343;1254;60102;-73
2023/06/07 02:41:57;;;;;;;7.50;3.70;;;;;;;19.19;49.03;100153.94;105341;1254;72295;-76
2023/06/07 02:44:25;;;;;;;4.70;3.30;;;;;;;19.23;49.00;100154.30;105664;1261;68893;-74
2023/06/07 02:46:52;;;;;;;6.70;3.60;;;;;;;19.26;48.89;100153.21;105599;1258;71405;-74
2023/06/07 02:49:20;;;;;;;5.60;3.60;;;;;;;19.30;48.81;100151.29;106070;1262;59823;-75
2023/06/07 02:51:47;;;;;;;7.00;3.20;;;;;;;19.33;48.74;100150.19;105959;1256;62377;-75
2023/06/07 02:54:19;;;;;;;6.90;3.40;;;;;;;19.37;48.73;100151.13;106214;1257;71834;-76
2023/06/07 02:56:47;;;;;;;6.80;3.60;;;;;;;19.40;48.59;100150.23;106023;1254;68958;-72
2023/06/07 02:59:14;;;;;;;5.10;3.40;;;;;;;19.43;48.60;100148.48;106003;1254;72783;-73
2023/06/07 03:01:43;;;;;;;4.80;3.10;;;;;;;19.47;48.72;100153.63;105881;1255;60014;-70
2023/06/07 03:04:10;;;;;;;6.00;3.80;;;;;;;19.50;48.54;100148.80;105718;1262;59651;-71
2023/06/07 03:06:41;;;;;;;5.80;3.00;;;;;;;19.51;48.44;100146.05;105946;1257;72029;-74
2023/06/07 03:09:21;;;;;;;5.50;3.40;;;;;;;19.54;48.45;100144.48;107575;1257;68800;-72
2023/06/07 03:11:49;;;;;;;8.10;3.80;;;;;;;19.55;48.36;100141.23;106374;1254;70941;-72
2023/06/07 03:14:19;;;;;;;6.40;3.70;;;;;;;19.58;48.52;100144.55;106727;1255;60375;-74
2023/06/07 03:16:47;;;;;;;5.20;3.80;;;;;;;19.59;48.50;100141.90;106437;1253;59542;-75
2023/06/07 03:19:16;;;;;;;6.70;3.70;;;;;;;19.59;48.61;100143.86;106452;1253;71821;-73
2023/06/07 03:21:44;;;;;;;6.90;4.00;;;;;;;19.60;48.69;100141.98;106075;1253;70030;-73
2023/06/07 03:24:13;;;;;;;9.20;3.90;;;;;;;19.60;48.83;100148.02;106251;1260;71420;-72
2023/06/07 03:26:41;;;;;;;6.70;3.80;;;;;;;19.60;48.92;100145.83;106795;1253;59605;-72
2023/06/07 03:29:12;;;;;;;7.20;3.90;;;;;;;19.61;48.95;100146.79;106672;1253;59505;-74
2023/06/07 03:31:40;;;;;;;8.80;3.70;;;;;;;19.62;48.97;100148.14;107207;1253;71557;-73
2023/06/07 03:34:11;;;;;;;7.90;4.10;;;;;;;19.62;49.04;100149.85;107768;1252;69183;-74
2023/06/07 03:36:40;;;;;;;5.40;3.60;;;;;;;19.63;49.14;100153.20;107945;1253;71724;-72
2023/06/07 03:39:09;;;;;;;7.60;4.20;;;;;;;19.64;49.19;100151.06;107803;1254;60002;-71
2023/06/07 03:41:37;;;;;;;7.10;4.10;;;;;;;19.64;49.26;100152.61;107777;1253;59704;-72
2023/06/07 03:44:06;;;;;;;5.80;4.30;;;;;;;19.64;49.28;100154.30;107585;1255;71860;-74
2023/06/07 03:46:34;;;;;;;8.50;4.10;;;;;;;19.62;49.54;100168.21;107303;1254;68733;-74
2023/06/07 03:49:02;;;;;;;7.30;3.80;;;;;;;19.57;49.98;100162.65;107581;1256;72968;-72
2023/06/07 03:51:32;;;;;;;6.40;4.20;;;;;;;19.49;49.88;100164.90;107303;1257;60277;-71
2023/06/07 03:54:00;;;;;;;5.00;3.80;;;;;;;19.42;50.15;100171.73;107404;1253;60602;-72
2023/06/07 03:56:29;;;;;;;6.80;3.80;;;;;;;19.36;50.22;100166.66;107591;1252;71727;-71
2023/06/07 03:58:57;;;;;;;6.40;3.70;;;;;;;19.30;50.53;100173.16;107187;1253;70213;-76
2023/06/07 04:01:25;;;;;;;12.00;3.90;;;;;;;19.21;50.73;100173.40;107486;1252;71247;-73
2023/06/07 04:03:54;;;;;;;5.60;3.60;;;;;;;19.15;50.74;100166.60;107524;1255;60531;-71
2023/06/07 04:06:27;;;;;;;5.80;3.70;;;;;;;19.12;50.67;100166.41;107610;1253;60323;-72
2023/06/07 04:08:56;;;;;;;6.70;4.30;;;;;;;19.12;50.69;100166.61;107149;1258;72381;-70
2023/06/07 04:11:27;;;;;;;10.20;3.60;;;;;;;19.14;50.68;100166.89;107318;1253;69036;-73
2023/06/07 04:13:54;;;;;;;9.90;3.60;;;;;;;19.17;50.48;100167.01;107224;1254;72618;-74
2023/06/07 04:16:25;;;;;;;6.00;4.10;;;;;;;19.19;50.25;100173.38;107165;1252;60333;-73
2023/06/07 04:18:52;;;;;;;5.90;4.00;;;;;;;19.22;50.12;100170.92;107038;1253;60470;-73
2023/06/07 04:21:21;;;;;;;7.40;4.10;;;;;;;19.27;49.89;100169.93;106704;1253;72925;-72
2023/06/07 04:23:49;;;;;;;5.40;3.40;;;;;;;19.31;49.66;100169.34;105695;1253;70632;-73
2023/06/07 04:26:22;;;;;;;7.30;3.90;;;;;;;19.37;49.42;100170.92;105777;1254;72676;-75
2023/06/07 04:28:50;;;;;;;6.00;3.60;;;;;;;19.41;49.27;100170.83;105943;1253;60493;-79
2023/06/07 04:31:22;;;;;;;6.10;4.00;;;;;;;19.47;48.97;100178.14;105952;1253;60475;-75
2023/06/07 04:33:50;;;;;;;6.40;3.90;;;;;;;19.52;48.76;100177.81;105742;1253;72559;-75
2023/06/07 04:36:18;;;;;;;7.60;4.30;;;;;;;19.57;48.57;100175.91;105635;1260;68836;-78
2023/06/07 04:38:46;;;;;;;4.40;3.30;;;;;;;19.63;48.41;100174.38;105729;1259;71396;-76
2023/06/07 04:41:32;;;;;;;7.60;4.20;;;;;;;19.70;48.16;100173.39;105938;1253;60584;-74
2023/06/07 04:44:01;;;;;;;6.10;4.10;;;;;;;19.75;48.16;100170.61;105805;1255;60432;-75
2023/06/07 04:46:31;;;;;;;7.40;3.70;;;;;;;19.80;48.12;100170.33;105959;1253;73930;-77
2023/06/07 04:49:00;;;;;;;5.20;3.90;;;;;;;19.86;47.89;100167.79;105834;1253;68070;-76
2023/06/07 04:51:29;;;;;;;4.60;3.60;;;;;;;19.92;47.89;100165.63;105943;1253;71609;-75
2023/06/07 04:54:04;;;;;;;7.70;4.40;;;;;;;20.00;47.74;100168.77;105996;1258;60416;-74
2023/06/07 04:56:36;;;;;;;7.60;4.80;;;;;;;20.11;47.51;100172.66;106006;1253;60425;-74
2023/06/07 04:59:04;;;;;;;7.80;6.00;;;;;;;20.19;47.33;100170.43;106351;1257;73963;-73
2023/06/07 05:01:35;;;;;;;5.70;5.10;;;;;;;20.28;47.17;100170.80;105923;1253;70145;-74
2023/06/07 05:04:03;;;;;;;8.70;5.20;;;;;;;20.35;46.78;100173.27;105729;1260;71551;-77
2023/06/07 05:06:58;;;;;;;9.90;5.30;;;;;;;20.44;46.84;100173.92;106660;1258;60502;-79
2023/06/07 05:09:28;;;;;;;6.20;5.10;;;;;;;20.52;46.78;100174.98;105967;1253;60544;-79
2023/06/07 05:11:58;;;;;;;7.00;4.80;;;;;;;20.58;46.82;100179.11;105826;1254;72628;-78
2023/06/07 05:14:26;;;;;;;7.00;4.40;;;;;;;20.64;46.78;100176.94;105970;1257;68279;-78
2023/06/07 05:16:53;;;;;;;10.70;5.80;;;;;;;20.69;46.83;100176.70;105710;1253;71508;-77
2023/06/07 05:19:21;;;;;;;8.30;7.40;;;;;;;20.72;46.67;100178.92;105717;1253;60537;-75
2023/06/07 05:21:50;;;;;;;12.60;10.70;;;;;;;20.77;46.68;100180.81;105758;1253;60542;-77
2023/06/07 05:24:18;;;;;;;12.50;11.00;;;;;;;20.81;46.50;100181.31;105884;1254;72807;-76
2023/06/07 05:26:46;;;;;;;13.80;11.00;;;;;;;20.85;46.70;100182.85;105954;1257;70340;-80
2023/06/07 05:29:14;;;;;;;10.60;8.60;;;;;;;20.89;46.60;100186.63;105835;1253;71075;-78
2023/06/07 05:31:42;;;;;;;11.70;10.50;;;;;;;20.93;46.70;100186.20;105882;1256;60599;-76
2023/06/07 05:34:10;;;;;;;14.30;12.80;;;;;;;20.99;46.77;100184.59;105949;1253;60531;-77
2023/06/07 05:36:39;;;;;;;13.40;10.30;;;;;;;21.06;46.60;100187.92;105800;1255;73842;-79
2023/06/07 05:39:12;;;;;;;11.10;6.20;;;;;;;21.12;46.48;100183.15;106061;1253;70089;-76
2023/06/07 05:41:39;;;;;;;7.70;5.90;;;;;;;21.17;46.42;100183.16;105799;1253;70217;-77
2023/06/07 05:44:07;;;;;;;7.10;4.70;;;;;;;21.21;46.28;100180.39;105724;1253;62125;-76
2023/06/07 05:46:36;;;;;;;7.90;5.20;;;;;;;21.26;46.21;100181.98;105885;1253;62343;-75
2023/06/07 05:49:04;;;;;;;7.40;4.50;;;;;;;21.30;45.97;100183.42;105778;1260;73280;-78
2023/06/07 05:51:32;;;;;;;5.50;4.10;;;;;;;21.33;46.07;100180.90;105841;1260;69064;-78
2023/06/07 05:54:00;;;;;;;9.90;5.10;;;;;;;21.34;46.06;100181.21;106078;1254;72861;-78
2023/06/07 05:56:28;;;;;;;8.30;4.10;;;;;;;21.37;46.51;100185.65;106194;1253;60531;-75
2023/06/07 05:58:56;;;;;;;8.60;4.00;;;;;;;21.38;46.35;100180.52;105513;1261;60683;-77
2023/06/07 06:01:24;;;;;;;7.50;4.40;;;;;;;21.41;46.35;100186.14;105533;1253;72715;-77
2023/06/07 06:03:52;;;;;;;8.10;4.40;;;;;;;21.43;46.54;100188.59;105947;1259;70542;-79
2023/06/07 06:06:20;;;;;;;8.90;4.60;;;;;;;21.43;46.42;100190.58;105968;1253;73179;-76
2023/06/07 06:08:49;;;;;;;8.20;4.70;;;;;;;21.40;46.42;100191.43;105791;1254;62317;-76
2023/06/07 06:11:17;;;;;;;7.20;4.20;;;;;;;21.39;46.51;100191.45;105797;1254;60401;-74
2023/06/07 06:13:44;;;;;;;6.70;4.30;;;;;;;21.40;46.74;100193.38;105542;1253;74949;-75
2023/06/07 06:16:12;;;;;;;6.40;4.10;;;;;;;21.43;46.84;100195.57;105619;1259;68948;-74
2023/06/07 06:18:43;;;;;;;8.90;4.80;;;;;;;21.47;47.00;100194.98;105552;1255;72498;-77
2023/06/07 06:21:10;;;;;;;8.90;5.30;;;;;;;21.50;46.66;100193.79;105750;1253;61078;-72
2023/06/07 06:23:38;;;;;;;8.60;4.20;;;;;;;21.50;46.68;100195.98;105517;1258;60430;-73
2023/06/07 06:26:05;;;;;;;6.70;4.00;;;;;;;21.50;46.83;100190.92;105566;1252;74846;-72
2023/06/07 06:28:33;;;;;;;6.40;4.40;;;;;;;21.51;46.69;100190.20;105478;1253;70312;-73
2023/06/07 06:31:01;;;;;;;6.80;4.10;;;;;;;21.53;46.96;100190.08;105675;1256;71491;-73
2023/06/07 06:33:29;;;;;;;10.60;4.90;;;;;;;21.51;47.10;100190.04;105631;1253;61127;-73
2023/06/07 06:35:57;;;;;;;7.30;3.90;;;;;;;21.50;47.44;100190.71;105738;1258;60514;-75
2023/06/07 06:38:24;;;;;;;9.60;4.70;;;;;;;21.52;48.01;100188.43;105775;1251;73771;-75
2023/06/07 06:40:52;;;;;;;6.60;4.70;;;;;;;21.59;47.91;100191.59;105675;1254;69215;-73
2023/06/07 06:43:19;;;;;;;9.00;4.30;;;;;;;21.64;47.77;100194.80;105626;1253;71407;-71
2023/06/07 06:45:50;;;;;;;5.90;4.10;;;;;;;21.69;47.88;100197.42;105671;1258;60302;-73
2023/06/07 06:48:17;;;;;;;6.80;4.00;;;;;;;21.73;47.79;100195.53;105442;1253;60462;-74
2023/06/07 06:50:47;;;;;;;5.50;4.40;;;;;;;21.77;47.71;100192.77;105321;1260;74297;-75
2023/06/07 06:53:15;;;;;;;6.30;3.50;;;;;;;21.78;47.48;100193.60;105488;1253;71062;-74
2023/06/07 06:55:42;;;;;;;9.30;5.00;;;;;;;21.77;47.91;100192.16;105445;1253;73884;-74
2023/06/07 06:58:15;;;;;;;10.00;5.10;;;;;;;21.79;48.07;100191.51;105649;1253;60357;-74
2023/06/07 07:00:43;;;;;;;;;;;;;;;21.83;48.05;100192.48;105483;1258;60441;-73
2023/06/07 07:03:11;;;;;;;9.70;4.30;;;;;;;21.89;48.17;100195.77;105628;1257;72775;-74
2023/06/07 07:05:38;;;;;;;7.40;4.10;;;;;;;21.95;48.15;100195.13;105642;1258;69036;-75
2023/06/07 07:08:06;;;;;;;11.20;4.50;;;;;;;22.03;48.16;100196.38;105404;1253;71593;-73
2023/06/07 07:10:34;;;;;;;6.30;4.50;;;;;;;22.10;48.30;100201.80;105639;1253;60436;-73
2023/06/07 07:13:02;;;;;;;9.80;4.70;;;;;;;22.10;47.78;100201.05;105564;1253;60472;-75
2023/06/07 07:15:30;;;;;;;6.10;4.50;;;;;;;22.09;48.36;100197.77;105753;1253;73973;-74
2023/06/07 07:17:57;;;;;;;6.70;4.80;;;;;;;22.11;48.42;100203.08;105462;1253;70146;-74
2023/06/07 07:20:25;;;;;;;7.20;4.10;;;;;;;22.12;47.58;100208.47;105381;1256;72827;-75
2023/06/07 07:22:53;;;;;;;6.90;4.10;;;;;;;22.10;47.14;100210.04;105886;1253;60433;-74
2023/06/07 07:25:21;;;;;;;7.00;4.60;;;;;;;22.05;47.27;100210.55;105715;1253;60509;-75
2023/06/07 07:27:50;;;;;;;5.70;4.10;;;;;;;21.98;47.39;100213.30;105644;1253;74014;-75
2023/06/07 07:30:23;;;;;;;9.40;4.40;;;;;;;21.91;47.53;100214.87;105478;1253;70849;-76
2023/06/07 07:32:55;;;;;;;9.30;4.80;;;;;;;21.86;47.75;100221.15;105620;1252;72840;-75
2023/06/07 07:35:27;;;;;;;9.40;4.70;;;;;;;21.82;48.16;100219.88;105571;1259;61500;-70
2023/06/07 07:38:01;;;;;;;13.20;5.70;;;;;;;21.82;48.44;100220.83;105788;1253;62624;-73
2023/06/07 07:40:31;;;;;;;10.10;7.70;;;;;;;21.77;48.40;100222.31;105746;1261;74071;-75
2023/06/07 07:43:01;;;;;;;14.00;7.20;;;;;;;21.76;48.31;100224.06;105609;1261;69302;-72
2023/06/07 07:45:31;;;;;;;16.30;7.80;;;;;;;21.78;48.08;100224.55;105675;1256;71416;-75
2023/06/07 07:48:00;;;;;;;8.50;7.40;;;;;;;21.83;47.99;100226.27;105444;1253;60547;-75
2023/06/07 07:50:30;;;;;;;12.70;7.20;;;;;;;21.85;48.07;100225.09;105590;1261;60355;-74
2023/06/07 07:52:59;;;;;;;8.70;6.20;;;;;;;21.88;48.07;100232.42;105757;1258;76711;-74
2023/06/07 07:55:30;;;;;;;8.30;4.60;;;;;;;21.91;47.81;100233.98;105920;1261;69582;-73
2023/06/07 07:58:00;;;;;;;8.30;4.70;;;;;;;21.92;47.66;100235.49;105882;1259;72831;-74
2023/06/07 08:00:31;;;;;;;7.00;4.60;;;;;;;21.94;47.53;100241.98;105520;1263;60428;-77
2023/06/07 08:03:03;;;;;;;8.70;3.90;;;;;;;21.94;47.63;100234.64;105832;1253;62603;-73
2023/06/07 08:05:32;;;;;;;7.40;4.00;;;;;;;22.00;47.64;100238.88;105737;1260;76087;-74
2023/06/07 08:08:01;;;;;;;9.30;4.10;;;;;;;22.05;47.51;100235.77;105441;1253;72829;-71
2023/06/07 08:10:30;;;;;;;8.30;3.80;;;;;;;22.07;47.68;100238.96;105899;1259;74178;-72
2023/06/07 08:13:00;;;;;;;7.10;4.10;;;;;;;22.09;47.81;100231.23;105663;1261;60407;-74
2023/06/07 08:15:32;;;;;;;7.30;4.10;;;;;;;22.19;47.81;100234.49;105574;1261;62754;-75
2023/06/07 08:18:05;;;;;;;11.00;4.90;;;;;;;22.30;47.64;100237.44;105881;1253;74782;-72
2023/06/07 08:20:36;;;;;;;17.00;5.30;;;;;;;22.40;47.80;100233.52;105615;1260;69395;-75
2023/06/07 08:23:06;;;;;;;10.20;4.90;;;;;;;22.50;47.67;100236.81;105502;1256;72463;-73
2023/06/07 08:25:40;;;;;;;11.70;5.10;;;;;;;22.61;47.78;100236.33;105903;1253;61833;-74
2023/06/07 08:28:09;;;;;;;10.20;4.70;;;;;;;22.75;48.19;100234.54;105699;1261;62061;-74
2023/06/07 08:30:41;;;;;;;6.40;4.40;;;;;;;22.90;47.64;100237.80;105953;1253;73173;-74
2023/06/07 08:33:10;;;;;;;10.60;5.80;;;;;;;22.99;47.14;100239.25;105940;1258;68953;-73
2023/06/07 08:35:40;;;;;;;6.30;4.80;;;;;;;23.06;47.12;100239.32;105809;1253;72406;-74
2023/06/07 08:38:14;;;;;;;8.20;5.40;;;;;;;23.11;47.07;100242.02;105775;1253;61031;-74
2023/06/07 08:40:42;;;;;;;8.20;5.00;;;;;;;23.11;47.20;100242.17;105918;1253;60314;-73
2023/06/07 08:43:12;;;;;;;10.40;5.30;;;;;;;23.16;47.44;100242.50;105755;1265;73271;-73
2023/06/07 08:45:42;;;;;;;9.10;6.30;;;;;;;23.25;47.29;100241.60;105916;1259;69242;-74
2023/06/07 08:48:12;;;;;;;11.70;7.50;;;;;;;23.38;47.28;100239.91;105869;1261;74881;-72
2023/06/07 08:50:44;;;;;;;9.60;5.30;;;;;;;23.52;47.63;100241.11;106269;1253;63289;-73
2023/06/07 08:53:17;;;;;;;9.00;5.90;;;;;;;23.69;46.89;100236.61;105887;1253;60408;-71
2023/06/07 08:55:47;;;;;;;6.70;4.80;;;;;;;23.80;46.65;100237.33;106188;1260;73956;-74
2023/06/07 08:58:16;;;;;;;8.20;5.30;;;;;;;23.87;46.73;100238.92;105733;1253;71813;-74
2023/06/07 09:00:47;;;;;;;5.70;4.90;;;;;;;24.02;46.37;100237.40;105938;1260;74767;-73
2023/06/07 09:03:16;;;;;;;11.80;5.20;;;;;;;24.18;46.07;100243.84;106054;1261;60384;-73
2023/06/07 09:05:47;;;;;;;13.00;4.80;;;;;;;24.35;45.54;100240.16;105626;1253;62752;-72
2023/06/07 09:08:15;;;;;;;9.10;5.70;;;;;;;24.50;45.55;100236.00;105880;1253;73834;-71
2023/06/07 09:10:42;;;;;;;6.40;4.80;;;;;;;24.74;45.64;100237.85;105744;1253;70334;-74
2023/06/07 09:13:10;;;;;;;7.70;5.00;;;;;;;25.07;45.28;100232.48;105711;1253;72669;-73
2023/06/07 09:15:38;;;;;;;6.80;4.70;;;;;;;25.39;44.30;100234.27;105869;1253;60493;-74
2023/06/07 09:18:06;;;;;;;5.80;5.20;;;;;;;25.78;43.75;100229.29;105650;1253;60595;-71
2023/06/07 09:20:36;;;;;;;7.40;5.70;;;;;;;26.20;43.33;100229.58;105716;1253;76728;-75
2023/06/07 09:23:08;;;;;;;8.10;5.50;;;;;;;26.69;42.77;100220.52;105956;1259;69084;-72
2023/06/07 09:25:39;;;;;;;4.30;3.90;;;;;;;27.28;41.70;100220.61;106221;1255;72688;-74
2023/06/07 09:28:14;;;;;;;9.10;5.20;;;;;;;27.89;40.63;100218.05;106634;1253;60510;-76
2023/06/07 09:31:11;;;;;;;8.30;4.70;;;;;;;28.55;39.55;100216.06;106385;1253;60404;-73
2023/06/07 09:33:39;;;;;;;6.60;4.50;;;;;;;29.31;38.62;100215.34;106116;1253;72576;-74
2023/06/07 09:36:18;;;;;;;6.20;5.00;;;;;;;29.94;37.61;100220.02;106345;1259;70285;-75
2023/06/07 09:38:45;;;;;;;5.50;3.90;;;;;;;30.49;36.55;100214.29;105946;1256;72722;-72
2023/06/07 09:41:13;;;;;;;9.00;4.00;;;;;;;30.69;35.48;100212.29;106500;1253;62310;-74
2023/06/07 09:43:41;;;;;;;6.70;4.00;;;;;;;30.62;35.13;100213.45;106114;1252;60307;-73
2023/06/07 09:46:09;;;;;;;5.60;3.90;;;;;;;30.56;34.76;100213.58;106106;1253;73944;-73
2023/06/07 09:48:47;;;;;;;4.60;4.20;;;;;;;30.53;34.00;100214.03;106299;1253;69505;-75
2023/06/07 09:51:16;;;;;;;7.20;4.40;;;;;;;30.51;34.50;100212.09;106313;1259;72115;-75
2023/06/07 09:53:53;;;;;;;6.40;4.60;;;;;;;30.56;34.89;100208.76;106727;1253;60410;-73
2023/06/07 09:56:21;;;;;;;6.90;4.60;;;;;;;30.85;34.56;100206.02;106680;1254;60659;-75
2023/06/07 09:59:05;;;;;;;5.70;3.90;;;;;;;31.15;34.09;100204.23;106739;1253;74976;-76
2023/06/07 10:01:43;;;;;;;6.20;4.30;;;;;;;31.29;32.91;100204.34;106413;1257;69079;-75
2023/06/07 10:04:11;;;;;;;7.10;4.40;;;;;;;31.37;32.96;100202.70;106711;1259;71666;-75
2023/06/07 10:06:47;;;;;;;5.10;4.10;;;;;;;31.52;33.13;100201.99;107421;1253;60408;-75
2023/06/07 10:09:15;;;;;;;5.70;4.20;;;;;;;31.84;32.88;100201.18;108921;1253;60897;-76
2023/06/07 10:11:45;;;;;;;7.80;4.40;;;;;;;32.10;32.53;100198.98;109132;1252;72643;-75
2023/06/07 10:14:18;;;;;;;6.90;4.40;;;;;;;32.31;32.41;100192.30;108937;1253;68852;-75
2023/06/07 10:16:56;;;;;;;5.70;4.70;;;;;;;32.59;32.05;100190.14;108972;1252;71387;-75
2023/06/07 10:19:31;;;;;;;8.10;4.40;;;;;;;32.87;32.02;100190.96;108990;1252;60384;-75
2023/06/07 10:21:59;;;;;;;9.30;4.80;;;;;;;33.07;32.32;100187.48;109046;1253;59045;-74
2023/06/07 10:24:35;;;;;;;6.70;4.60;;;;;;;33.23;32.12;100186.06;108381;1253;72566;-75
2023/06/07 10:27:08;;;;;;;6.60;4.80;;;;;;;33.27;32.01;100185.45;108822;1253;68923;-76
2023/06/07 10:29:42;;;;;;;7.70;5.20;;;;;;;33.32;31.68;100186.56;108832;1251;73690;-76
2023/06/07 10:32:13;;;;;;;8.80;5.20;;;;;;;33.31;31.48;100181.80;109131;1254;58832;-76
2023/06/07 10:34:40;;;;;;;5.50;4.60;;;;;;;33.26;31.79;100182.52;109270;1252;58888;-74
2023/06/07 10:37:08;;;;;;;5.80;4.70;;;;;;;33.19;31.29;100182.30;109153;1252;72342;-74
2023/06/07 10:39:37;;;;;;;4.30;3.50;;;;;;;32.92;30.32;100182.83;109096;1251;69151;-76
2023/06/07 10:42:05;;;;;;;5.20;4.00;;;;;;;32.46;30.45;100182.62;109061;1252;71901;-75
2023/06/07 10:44:35;;;;;;;4.70;3.70;;;;;;;32.13;31.55;100177.16;109052;1253;58944;-73
2023/06/07 10:47:26;;;;;;;6.10;4.20;;;;;;;31.72;31.91;100178.80;107422;1253;60254;-74
2023/06/07 10:49:54;;;;;;;5.90;4.00;;;;;;;31.10;32.56;100179.45;108595;1253;73138;-75
2023/06/07 10:52:23;;;;;;;6.60;4.50;;;;;;;30.66;32.99;100175.95;108539;1257;68800;-74
2023/06/07 10:54:51;;;;;;;6.90;4.70;;;;;;;30.47;33.74;100178.86;108627;1254;71370;-78
2023/06/07 10:57:35;;;;;;;6.80;4.00;;;;;;;30.39;34.25;100178.27;107475;1259;60504;-75
2023/06/07 11:00:33;;;;;;;5.50;4.00;;;;;;;30.26;34.68;100179.42;105882;1255;60983;-77
2023/06/07 11:03:16;;;;;;;6.70;4.30;;;;;;;29.92;35.16;100180.05;105788;1253;73909;-75
2023/06/07 11:05:53;;;;;;;;;;;;;;;29.80;35.45;100177.63;105742;1260;70098;-76
2023/06/07 11:08:23;;;;;;;5.20;4.10;;;;;;;29.79;34.91;100174.95;105933;1257;71940;-75
2023/06/07 11:10:51;;;;;;;5.50;4.40;;;;;;;29.63;35.10;100175.73;105373;1259;60533;-75
2023/06/07 11:13:18;;;;;;;6.00;4.00;;;;;;;29.58;35.67;100174.31;105802;1258;60543;-76
2023/06/07 11:15:46;;;;;;;5.80;4.10;;;;;;;29.73;35.97;100173.29;105265;1258;73883;-76
2023/06/07 11:18:14;;;;;;;5.30;4.00;;;;;;;29.93;35.65;100169.25;105922;1257;70284;-75
2023/06/07 11:20:48;;;;;;;4.10;3.70;;;;;;;30.08;34.79;100171.96;105561;1258;71491;-77
2023/06/07 11:23:26;;;;;;;4.80;4.00;;;;;;;30.18;34.33;100171.23;105941;1258;60534;-75
2023/06/07 11:25:58;;;;;;;5.20;3.90;;;;;;;30.22;33.83;100176.55;106365;1257;60429;-78
2023/06/07 11:28:27;;;;;;;5.20;4.20;;;;;;;30.14;34.07;100170.82;106394;1259;72528;-77